CPX443 Details

Departure: Chicago/Rockford International Airport (KRFD)
Arrival: Tampa International Airport (KTPA)
Route: AHMED PNT PXV J73 WYATT HEVVN FOOXX5


Current Weather Information
KRFD 250354Z 08006KT 10SM BKN250 16/12 A3022 RMK AO2 SLP231 T01560117
KTPA 250353Z 10007KT 10SM FEW030 29/23 A2997 RMK AO2 SLP149 OCNL LTGIC DSNT SW CB DSNT SW T02940228 $